createdAt,value
2023-01-12T08:09:29.893Z,174.38
2023-01-12T08:10:29.521Z,180.00
2023-01-12T08:11:29.487Z,185.62
2023-01-12T08:12:29.460Z,196.88
2023-01-12T08:13:29.462Z,208.12
2023-01-12T08:14:29.448Z,208.12
2023-01-12T08:15:29.450Z,219.38
2023-01-12T08:16:29.489Z,225.00
2023-01-12T08:17:29.448Z,230.62
2023-01-12T08:18:29.584Z,236.25
2023-01-12T08:19:29.361Z,236.25
2023-01-12T08:20:29.497Z,241.88
2023-01-12T08:21:29.343Z,247.50
2023-01-12T08:22:36.811Z,253.12
2023-01-12T17:33:43.109Z,0.00
2023-01-12T18:09:25.504Z,0.00
2023-01-12T18:10:23.547Z,0.00
2023-01-12T18:11:23.529Z,0.00
2023-01-12T18:12:23.522Z,0.00
2023-01-12T18:13:23.484Z,0.00
2023-01-12T18:14:23.607Z,0.00
2023-01-12T18:15:23.479Z,0.00
2023-01-12T18:16:23.472Z,0.00
2023-01-12T18:17:23.444Z,0.00
2023-01-12T18:18:23.449Z,0.00
2023-01-12T18:19:23.410Z,0.00
2023-01-12T18:20:23.510Z,0.00
2023-01-12T18:21:23.425Z,0.00
2023-01-12T18:22:26.388Z,0.00
2023-01-12T18:23:23.412Z,0.00
2023-01-12T19:01:35.198Z,0.00
2023-01-12T19:02:35.101Z,0.00
2023-01-12T19:03:35.033Z,0.00
2023-01-12T19:04:35.055Z,0.00
2023-01-12T19:05:35.043Z,0.00
2023-01-12T19:06:35.034Z,0.00
2023-01-12T19:07:35.001Z,0.00
2023-01-12T19:33:48.098Z,0.00
2023-01-12T19:34:49.219Z,0.00
2023-01-12T19:35:48.962Z,0.00
2023-01-12T19:36:47.946Z,0.00
2023-01-12T19:37:47.932Z,0.00
2023-01-12T19:43:42.674Z,0.00
2023-01-12T19:46:33.294Z,0.00
2023-01-12T19:52:05.100Z,0.00
2023-01-12T19:53:03.537Z,0.00
2023-01-12T19:54:04.402Z,0.00
2023-01-12T19:55:03.430Z,0.00
2023-01-12T19:56:03.426Z,0.00
2023-01-12T20:02:42.220Z,0.00
2023-01-12T20:15:27.975Z,0.00
2023-01-12T20:25:23.700Z,0.00
2023-01-12T20:26:36.252Z,0.00
2023-01-12T21:03:49.679Z,0.00
2023-01-12T21:23:06.189Z,0.00
2023-01-12T21:24:06.129Z,0.00
2023-01-12T21:25:06.124Z,0.00
2023-01-12T21:26:06.134Z,0.00
2023-01-12T21:27:06.130Z,0.00
2023-01-12T21:28:06.221Z,0.00
2023-01-12T21:29:06.101Z,0.00
2023-01-12T21:30:06.152Z,0.00
2023-01-12T21:38:10.538Z,0.00
2023-01-12T21:41:54.654Z,0.00
2023-01-12T21:42:54.620Z,0.00
2023-01-12T21:49:38.558Z,0.00
2023-01-12T21:50:38.587Z,0.00
2023-01-12T21:54:05.982Z,0.00
2023-01-12T21:55:05.983Z,0.00
2023-01-12T22:01:53.177Z,0.00
2023-01-12T22:03:01.323Z,0.00
2023-01-12T22:09:36.312Z,0.00
2023-01-12T22:12:31.101Z,0.00
